Time;durP1;ratioP1;P1;durP2;ratioP2;P2;SDS_P1;SDS_P2;PMS_P1;PMS_P2;Temp;Humidity;BMP_temperature;BMP_pressure;BME280_temperature;BME280_humidity;BME280_pressure;Samples;Min_cycle;Max_cycle;Signal;HPM_P1;HPM_P2
2021/04/29 00:01:24;;;;;;;13.55;10.70;;;8.70;81.00;;;;;;5075954;28;20372;-63
2021/04/29 00:03:50;;;;;;;13.95;11.05;;;8.70;80.90;;;;;;5080125;28;20102;-62
2021/04/29 00:06:16;;;;;;;12.77;10.77;;;8.70;80.60;;;;;;5076542;28;20053;-62
2021/04/29 00:08:42;;;;;;;14.30;10.00;;;8.70;80.80;;;;;;5079630;28;20082;-63
2021/04/29 00:11:09;;;;;;;17.95;11.35;;;8.80;81.00;;;;;;5074682;28;20436;-63
2021/04/29 00:13:35;;;;;;;13.85;11.30;;;8.70;80.50;;;;;;5084391;28;20072;-63
2021/04/29 00:16:02;;;;;;;14.98;10.60;;;8.80;80.30;;;;;;5070813;28;20415;-63
2021/04/29 00:18:28;;;;;;;15.10;10.68;;;8.90;79.80;;;;;;5083553;28;20074;-63
2021/04/29 00:20:56;;;;;;;13.32;10.88;;;8.90;79.50;;;;;;5072747;28;20114;-63
2021/04/29 00:23:29;;;;;;;11.52;10.32;;;8.90;79.70;;;;;;5083098;28;20052;-63
2021/04/29 00:25:55;;;;;;;14.25;10.38;;;8.90;79.40;;;;;;5074620;28;20040;-62
2021/04/29 00:28:21;;;;;;;17.10;10.77;;;8.90;78.90;;;;;;5078899;28;20142;-63
2021/04/29 00:30:48;;;;;;;15.98;10.18;;;9.00;79.00;;;;;;5072748;28;20085;-62
2021/04/29 00:33:15;;;;;;;13.75;10.40;;;8.90;78.70;;;;;;5081588;28;20040;-62
2021/04/29 00:35:41;;;;;;;14.23;10.60;;;8.90;79.20;;;;;;5079957;28;20367;-63
2021/04/29 00:38:06;;;;;;;18.27;10.75;;;8.90;78.60;;;;;;5077146;28;20075;-63
2021/04/29 00:40:32;;;;;;;13.15;10.68;;;8.90;78.60;;;;;;5076863;28;20048;-63
2021/04/29 00:42:58;;;;;;;12.05;9.50;;;8.90;78.10;;;;;;5071676;28;20044;-63
2021/04/29 00:45:24;;;;;;;13.27;10.85;;;9.00;77.80;;;;;;5076206;28;20173;-63
2021/04/29 00:47:51;;;;;;;11.70;9.93;;;9.00;77.90;;;;;;5076603;28;20044;-63
2021/04/29 00:50:22;;;;;;;15.18;11.18;;;8.90;77.90;;;;;;5082065;28;20045;-63
2021/04/29 00:52:48;;;;;;;13.77;10.68;;;9.00;78.10;;;;;;5070830;28;20396;-63
2021/04/29 00:55:14;;;;;;;13.65;10.40;;;9.00;77.90;;;;;;5081250;28;20051;-63
2021/04/29 00:57:41;;;;;;;13.80;10.00;;;9.00;78.20;;;;;;5072159;28;20040;-63
2021/04/29 01:00:09;;;;;;;14.25;10.50;;;8.90;78.80;;;;;;5076989;28;20107;-63
2021/04/29 01:02:40;;;;;;;12.00;10.13;;;8.90;78.50;;;;;;5077347;28;20036;-63
2021/04/29 01:05:13;;;;;;;11.73;10.43;;;8.90;78.80;;;;;;5080984;28;20036;-63
2021/04/29 01:07:43;;;;;;;14.57;10.63;;;8.90;78.70;;;;;;5073341;28;20041;-63
2021/04/29 01:10:17;;;;;;;12.95;10.95;;;8.90;78.60;;;;;;5077810;28;20530;-63
2021/04/29 01:12:47;;;;;;;15.07;10.93;;;8.80;78.90;;;;;;5071152;28;20048;-63
2021/04/29 01:15:15;;;;;;;17.27;10.70;;;8.80;79.10;;;;;;5081502;28;20437;-63
2021/04/29 01:17:44;;;;;;;12.07;10.77;;;8.80;79.10;;;;;;5069022;28;20036;-63
2021/04/29 01:20:19;;;;;;;14.65;11.35;;;8.80;79.20;;;;;;5077941;28;20040;-63
2021/04/29 01:23:14;;;;;;;13.70;10.95;;;8.70;79.60;;;;;;5075238;28;20515;-63
2021/04/29 01:25:41;;;;;;;14.40;11.15;;;8.80;79.50;;;;;;5077464;28;20498;-63
2021/04/29 01:28:07;;;;;;;17.13;11.30;;;8.70;80.50;;;;;;5073604;28;20037;-63
2021/04/29 01:30:35;;;;;;;15.38;10.73;;;8.70;80.40;;;;;;5079614;28;20040;-63
2021/04/29 01:33:02;;;;;;;14.65;10.40;;;8.60;80.70;;;;;;5079778;28;20040;-62
2021/04/29 01:35:30;;;;;;;16.27;11.70;;;8.60;80.70;;;;;;5071172;28;20096;-62
2021/04/29 01:37:57;;;;;;;15.25;11.18;;;8.60;81.20;;;;;;5080468;28;20055;-62
2021/04/29 01:40:23;;;;;;;14.25;11.15;;;8.60;81.40;;;;;;5070369;28;20036;-62
2021/04/29 01:42:49;;;;;;;14.15;10.85;;;8.60;81.50;;;;;;5079722;28;20046;-62
2021/04/29 01:45:15;;;;;;;13.65;11.02;;;8.60;81.80;;;;;;5073564;28;20101;-62
2021/04/29 01:47:41;;;;;;;17.33;11.10;;;8.60;81.90;;;;;;5074848;28;20120;-62
2021/04/29 01:50:09;;;;;;;19.17;11.82;;;8.60;81.90;;;;;;5074892;28;20044;-62
2021/04/29 01:52:36;;;;;;;14.35;11.75;;;8.60;81.60;;;;;;5078544;28;20036;-62
2021/04/29 01:55:03;;;;;;;15.90;11.73;;;8.60;81.60;;;;;;5072395;28;20048;-62
2021/04/29 01:57:29;;;;;;;15.18;11.70;;;8.60;81.70;;;;;;5078184;28;20476;-62
2021/04/29 01:59:55;;;;;;;13.93;11.40;;;8.60;81.60;;;;;;5070879;28;20053;-62
2021/04/29 02:02:25;;;;;;;15.63;11.50;;;8.60;81.70;;;;;;5080765;28;20105;-62
2021/04/29 02:04:50;;;;;;;13.93;11.32;;;8.60;82.50;;;;;;5070182;28;20068;-62
2021/04/29 02:07:17;;;;;;;14.25;12.02;;;8.60;82.20;;;;;;5080314;28;20126;-62
2021/04/29 02:09:43;;;;;;;16.92;11.90;;;8.50;82.60;;;;;;5071383;28;20115;-62
2021/04/29 02:12:10;;;;;;;14.82;11.27;;;8.50;82.10;;;;;;5078706;28;20101;-62
2021/04/29 02:14:48;;;;;;;19.58;12.52;;;8.40;82.40;;;;;;5080261;28;20590;-62
2021/04/29 02:17:42;;;;;;;15.70;12.43;;;8.40;82.30;;;;;;5082568;28;20047;-62
2021/04/29 02:20:13;;;;;;;15.82;11.57;;;8.40;82.30;;;;;;5075883;28;20454;-62
2021/04/29 02:22:41;;;;;;;14.02;12.52;;;8.40;82.10;;;;;;5084494;28;20112;-62
2021/04/29 02:25:09;;;;;;;14.38;11.30;;;8.40;82.40;;;;;;5078531;28;20089;-62
2021/04/29 02:27:35;;;;;;;16.17;11.77;;;8.40;82.80;;;;;;5077563;28;20044;-62
2021/04/29 02:30:05;;;;;;;15.45;12.13;;;8.30;83.30;;;;;;5083136;28;20041;-62
2021/04/29 02:32:31;;;;;;;15.80;11.85;;;8.30;83.10;;;;;;5073890;28;20032;-62
2021/04/29 02:34:57;;;;;;;13.80;11.45;;;8.30;82.80;;;;;;5082762;28;20068;-62
2021/04/29 02:37:23;;;;;;;18.13;12.73;;;8.30;83.90;;;;;;5074982;28;20074;-62
2021/04/29 02:39:49;;;;;;;17.50;12.63;;;8.20;83.80;;;;;;5079680;28;20426;-63
2021/04/29 02:42:15;;;;;;;17.50;12.77;;;8.20;84.40;;;;;;5077044;28;20052;-63
2021/04/29 02:44:41;;;;;;;18.92;13.18;;;8.20;84.30;;;;;;5081016;28;20041;-63
2021/04/29 02:47:07;;;;;;;16.77;12.70;;;8.20;84.30;;;;;;5076925;28;20135;-62
2021/04/29 02:49:33;;;;;;;15.75;12.43;;;8.20;84.70;;;;;;5084374;28;20170;-62
2021/04/29 02:52:00;;;;;;;18.33;14.05;;;8.20;84.70;;;;;;5075028;28;20159;-62
2021/04/29 02:54:26;;;;;;;19.80;12.73;;;8.10;85.40;;;;;;5084023;28;20513;-62
2021/04/29 02:56:52;;;;;;;18.33;12.98;;;8.10;85.50;;;;;;5077865;28;20032;-62
2021/04/29 02:59:17;;;;;;;19.92;13.60;;;8.10;85.80;;;;;;5082543;28;20190;-62
2021/04/29 03:01:43;;;;;;;16.30;14.00;;;8.00;85.60;;;;;;5075803;28;20055;-62
2021/04/29 03:04:10;;;;;;;16.27;14.35;;;8.00;86.70;;;;;;5082196;28;20067;-62
2021/04/29 03:06:36;;;;;;;16.23;14.02;;;8.00;86.40;;;;;;5083278;28;20038;-62
2021/04/29 03:09:04;;;;;;;15.32;13.73;;;8.00;86.70;;;;;;5077539;28;20059;-62
2021/04/29 03:11:32;;;;;;;21.77;14.55;;;8.00;87.20;;;;;;5082810;28;20078;-62
2021/04/29 03:13:58;;;;;;;19.77;14.35;;;8.00;86.90;;;;;;5073477;28;20048;-62
2021/04/29 03:16:24;;;;;;;18.88;14.85;;;7.90;87.50;;;;;;5083350;28;20805;-63
2021/04/29 03:18:50;;;;;;;22.23;15.80;;;8.00;88.30;;;;;;5073174;28;20047;-62
2021/04/29 03:21:15;;;;;;;19.05;14.73;;;8.00;88.00;;;;;;5081514;28;20055;-62
2021/04/29 03:23:41;;;;;;;19.27;15.82;;;8.00;87.60;;;;;;5073546;28;20438;-63
2021/04/29 03:26:07;;;;;;;19.83;15.40;;;8.00;88.40;;;;;;5082944;28;20039;-63
2021/04/29 03:28:33;;;;;;;22.00;16.20;;;8.00;88.90;;;;;;5071331;28;20036;-63
2021/04/29 03:30:58;;;;;;;18.13;14.90;;;8.00;88.10;;;;;;5080384;28;20036;-63
2021/04/29 03:33:24;;;;;;;18.48;16.17;;;8.00;88.30;;;;;;5075647;28;20037;-63
2021/04/29 03:35:50;;;;;;;21.27;16.58;;;8.10;88.50;;;;;;5080535;28;20068;-63
2021/04/29 03:38:16;;;;;;;19.27;16.00;;;8.10;88.60;;;;;;5074361;28;20061;-63
2021/04/29 03:40:41;;;;;;;19.52;17.20;;;8.10;88.50;;;;;;5078085;28;20036;-63
2021/04/29 03:43:07;;;;;;;24.25;17.40;;;8.10;89.30;;;;;;5083237;28;20390;-63
2021/04/29 03:45:33;;;;;;;20.60;17.15;;;8.10;89.30;;;;;;5077302;28;20067;-62
2021/04/29 03:48:02;;;;;;;20.95;17.52;;;8.10;88.70;;;;;;5081811;28;20044;-63
2021/04/29 03:50:28;;;;;;;23.17;18.00;;;8.10;88.90;;;;;;5073857;28;20050;-62
2021/04/29 03:52:54;;;;;;;21.52;18.25;;;8.10;88.50;;;;;;5082706;28;20036;-62
2021/04/29 03:55:20;;;;;;;22.13;17.27;;;8.10;88.70;;;;;;5073201;28;20045;-62
2021/04/29 03:57:46;;;;;;;23.27;18.10;;;8.10;89.60;;;;;;5082204;28;20127;-62
2021/04/29 04:00:13;;;;;;;25.42;19.02;;;8.10;88.70;;;;;;5075382;28;20040;-62
2021/04/29 04:02:39;;;;;;;24.17;18.50;;;8.10;89.50;;;;;;5080000;28;20090;-62
2021/04/29 04:05:06;;;;;;;23.75;18.77;;;8.10;89.30;;;;;;5076564;28;20041;-62
2021/04/29 04:07:33;;;;;;;22.98;19.15;;;8.00;90.10;;;;;;5081391;28;20028;-62
2021/04/29 04:09:59;;;;;;;24.05;19.52;;;8.10;90.00;;;;;;5074409;28;20458;-62
2021/04/29 04:12:25;;;;;;;25.73;20.73;;;8.00;90.30;;;;;;5082134;28;20131;-62
2021/04/29 04:14:51;;;;;;;23.58;19.05;;;8.00;90.60;;;;;;5072658;28;20453;-62
2021/04/29 04:17:16;;;;;;;28.48;20.05;;;8.00;90.80;;;;;;5078974;28;20066;-62
2021/04/29 04:19:42;;;;;;;22.80;20.40;;;8.00;90.50;;;;;;5072222;28;20407;-63
2021/04/29 04:22:08;;;;;;;26.92;21.05;;;8.00;91.30;;;;;;5082294;28;20097;-63
2021/04/29 04:24:34;;;;;;;25.60;20.30;;;8.00;91.40;;;;;;5074516;28;20037;-62
2021/04/29 04:26:59;;;;;;;23.63;19.80;;;8.00;90.90;;;;;;5072603;28;20036;-63
2021/04/29 04:29:25;;;;;;;22.42;20.00;;;8.00;90.80;;;;;;5076380;28;20036;-62
2021/04/29 04:31:51;;;;;;;21.90;19.17;;;8.00;90.90;;;;;;5072228;28;20475;-62
2021/04/29 04:34:16;;;;;;;24.88;19.52;;;8.00;90.80;;;;;;5078087;28;20094;-62
2021/04/29 04:36:42;;;;;;;23.48;19.77;;;8.00;91.20;;;;;;5069987;28;20036;-62
2021/04/29 04:39:08;;;;;;;25.38;19.58;;;8.00;91.00;;;;;;5076978;28;20037;-62
2021/04/29 04:41:34;;;;;;;23.90;20.25;;;8.00;90.90;;;;;;5075157;28;20122;-62
2021/04/29 04:44:00;;;;;;;26.45;21.45;;;8.00;91.00;;;;;;5080022;28;20131;-62
2021/04/29 04:46:25;;;;;;;26.55;21.27;;;8.00;91.30;;;;;;5075508;28;20032;-62
2021/04/29 04:48:51;;;;;;;26.27;21.38;;;8.00;91.40;;;;;;5079614;28;20060;-62
2021/04/29 04:51:17;;;;;;;24.25;20.20;;;7.90;91.40;;;;;;5073454;28;20036;-62
2021/04/29 04:53:43;;;;;;;22.27;19.90;;;7.90;91.20;;;;;;5077593;28;20206;-62
2021/04/29 04:56:09;;;;;;;27.58;19.95;;;8.00;91.30;;;;;;5072169;28;20418;-62
2021/04/29 04:58:36;;;;;;;23.60;19.45;;;7.90;91.40;;;;;;5079660;28;20048;-62
2021/04/29 05:01:02;;;;;;;23.10;19.92;;;7.90;91.30;;;;;;5077607;28;20040;-62
2021/04/29 05:03:28;;;;;;;26.00;20.98;;;8.00;92.00;;;;;;5071649;28;20036;-62
2021/04/29 05:05:55;;;;;;;25.95;20.95;;;8.00;91.70;;;;;;5079178;28;20048;-62
2021/04/29 05:08:20;;;;;;;22.92;20.48;;;8.00;91.60;;;;;;5074436;28;20050;-62
2021/04/29 05:10:46;;;;;;;27.00;21.23;;;8.10;91.50;;;;;;5081473;28;20036;-62
2021/04/29 05:13:12;;;;;;;24.38;20.15;;;8.20;91.80;;;;;;5071407;28;20067;-63
2021/04/29 05:15:38;;;;;;;25.52;20.38;;;8.20;91.80;;;;;;5076618;28;20033;-63
2021/04/29 05:18:04;;;;;;;25.42;20.45;;;8.20;91.60;;;;;;5069512;28;20059;-62
2021/04/29 05:20:31;;;;;;;26.75;20.35;;;8.30;91.60;;;;;;5078845;28;20449;-62
2021/04/29 05:22:57;;;;;;;22.48;20.08;;;8.30;91.80;;;;;;5073044;28;20530;-62
2021/04/29 05:25:23;;;;;;;22.92;19.02;;;8.30;91.50;;;;;;5080561;28;20041;-62
2021/04/29 05:27:53;;;;;;;27.17;20.90;;;8.40;91.40;;;;;;5074668;28;20052;-62
2021/04/29 05:30:20;;;;;;;27.92;20.60;;;8.40;91.40;;;;;;5079353;28;20150;-62
2021/04/29 05:32:47;;;;;;;27.20;20.05;;;8.40;91.10;;;;;;5071278;28;20591;-62
2021/04/29 05:35:14;;;;;;;25.65;20.17;;;8.40;91.20;;;;;;5083722;28;20036;-62
2021/04/29 05:37:39;;;;;;;26.45;20.55;;;8.40;91.00;;;;;;5075637;28;20096;-62
2021/04/29 05:40:06;;;;;;;23.90;18.85;;;8.40;91.10;;;;;;5075539;28;20032;-62
2021/04/29 05:42:32;;;;;;;27.50;20.05;;;8.40;91.00;;;;;;5081590;28;20565;-62
2021/04/29 05:44:58;;;;;;;30.58;22.38;;;8.40;90.80;;;;;;5073176;28;20082;-62
2021/04/29 05:47:23;;;;;;;26.13;19.23;;;8.40;91.30;;;;;;5076891;28;20369;-62
2021/04/29 05:49:49;;;;;;;53.08;43.13;;;8.40;91.30;;;;;;5070920;28;20029;-62
2021/04/29 05:52:15;;;;;;;26.55;19.50;;;8.50;91.10;;;;;;5080950;28;20040;-62
2021/04/29 05:54:41;;;;;;;23.90;19.73;;;8.60;91.30;;;;;;5088499;28;20187;-62
2021/04/29 05:57:06;;;;;;;24.08;19.73;;;8.60;91.30;;;;;;5078765;28;20037;-62
2021/04/29 05:59:32;;;;;;;22.48;18.88;;;8.70;91.00;;;;;;5071022;28;20049;-62
2021/04/29 06:01:58;;;;;;;26.55;19.92;;;8.80;91.00;;;;;;5079755;28;20128;-62
2021/04/29 06:04:24;;;;;;;24.83;18.80;;;8.80;90.70;;;;;;5088513;28;20109;-62
2021/04/29 06:06:50;;;;;;;22.50;18.10;;;8.80;90.80;;;;;;5079055;28;20041;-62
2021/04/29 06:09:17;;;;;;;25.00;19.52;;;8.80;90.80;;;;;;5072982;28;20455;-62
2021/04/29 06:11:44;;;;;;;23.48;18.83;;;8.90;90.70;;;;;;5077798;28;20120;-62
2021/04/29 06:14:13;;;;;;;20.77;18.67;;;9.00;90.70;;;;;;5073005;28;20045;-62
2021/04/29 06:16:40;;;;;;;22.45;19.20;;;9.00;90.50;;;;;;5079293;28;20036;-62
2021/04/29 06:19:07;;;;;;;23.75;18.83;;;9.10;90.40;;;;;;5078968;28;20036;-62
2021/04/29 06:21:33;;;;;;;24.25;19.95;;;9.10;90.20;;;;;;5073807;28;20040;-62
2021/04/29 06:24:00;;;;;;;26.55;19.17;;;9.20;90.20;;;;;;5079729;28;20071;-62
2021/04/29 06:26:26;;;;;;;22.75;19.35;;;9.30;90.10;;;;;;5072584;28;20462;-62
2021/04/29 06:28:52;;;;;;;25.95;19.38;;;9.30;90.30;;;;;;5081672;28;20479;-62
2021/04/29 06:31:18;;;;;;;24.90;20.73;;;9.40;90.40;;;;;;5066884;28;20068;-62
2021/04/29 06:33:44;;;;;;;23.75;19.95;;;9.30;90.30;;;;;;5075951;28;20110;-62
2021/04/29 06:36:09;;;;;;;26.17;23.02;;;9.30;90.20;;;;;;5071769;28;20040;-63
2021/04/29 06:38:36;;;;;;;32.53;25.52;;;9.30;90.00;;;;;;5079382;28;20055;-62
2021/04/29 06:41:02;;;;;;;26.90;20.48;;;9.40;90.30;;;;;;5069431;28;20139;-62
2021/04/29 06:43:28;;;;;;;28.35;20.85;;;9.40;90.10;;;;;;5081045;28;20051;-62
2021/04/29 06:45:54;;;;;;;28.58;21.33;;;9.30;90.20;;;;;;5070236;28;20411;-62
2021/04/29 06:48:20;;;;;;;27.80;20.65;;;9.30;90.30;;;;;;5079467;28;20407;-62
2021/04/29 06:50:46;;;;;;;27.38;20.38;;;9.30;90.10;;;;;;5072727;28;20075;-62
2021/04/29 06:53:12;;;;;;;25.23;20.95;;;9.30;90.10;;;;;;5078048;28;20040;-63
2021/04/29 06:55:38;;;;;;;26.35;21.00;;;9.30;90.10;;;;;;5070867;28;20340;-62
2021/04/29 06:58:04;;;;;;;23.80;21.08;;;9.40;90.10;;;;;;5075978;28;20507;-62
2021/04/29 07:00:30;;;;;;;25.88;21.13;;;9.40;89.80;;;;;;5082411;28;20044;-62
2021/04/29 07:02:56;;;;;;;26.58;22.17;;;9.50;90.00;;;;;;5075393;28;20079;-63
2021/04/29 07:05:23;;;;;;;29.38;22.67;;;9.50;89.90;;;;;;5082777;28;20387;-62
2021/04/29 07:07:51;;;;;;;26.92;22.40;;;9.50;89.70;;;;;;5076431;28;20040;-62
2021/04/29 07:10:17;;;;;;;27.25;20.80;;;9.50;89.50;;;;;;5082237;28;20048;-62
2021/04/29 07:12:43;;;;;;;27.00;23.38;;;9.50;89.40;;;;;;5076968;28;20059;-62
2021/04/29 07:15:09;;;;;;;25.30;22.33;;;9.60;89.60;;;;;;5082549;28;20040;-62
2021/04/29 07:17:35;;;;;;;32.30;23.88;;;9.60;89.40;;;;;;5075648;28;20085;-62
2021/04/29 07:20:00;;;;;;;40.88;35.28;;;9.70;89.20;;;;;;5080241;28;20419;-62
2021/04/29 07:22:26;;;;;;;37.45;29.58;;;9.70;89.30;;;;;;5072375;28;20549;-63
2021/04/29 07:24:52;;;;;;;26.13;23.02;;;9.70;88.70;;;;;;5083087;28;20040;-63
2021/04/29 07:27:18;;;;;;;24.63;22.02;;;9.70;88.50;;;;;;5075176;28;20064;-62
2021/04/29 07:29:43;;;;;;;28.67;23.55;;;9.80;88.40;;;;;;5081183;28;20119;-62
2021/04/29 07:32:09;;;;;;;26.75;24.02;;;9.80;89.20;;;;;;5078651;28;20036;-62
2021/04/29 07:34:35;;;;;;;28.23;24.33;;;9.80;89.20;;;;;;5084641;28;20498;-62
2021/04/29 07:37:03;;;;;;;31.70;25.98;;;10.00;90.00;;;;;;5082096;28;20055;-62
2021/04/29 07:39:29;;;;;;;27.50;24.42;;;10.10;90.20;;;;;;5073418;28;20071;-61
2021/04/29 07:41:55;;;;;;;27.05;24.15;;;10.20;90.30;;;;;;5083549;28;20066;-61
2021/04/29 07:44:21;;;;;;;28.45;24.60;;;10.20;90.20;;;;;;5076372;28;20048;-62
2021/04/29 07:46:48;;;;;;;28.80;25.85;;;10.20;90.10;;;;;;5081263;28;20498;-62
2021/04/29 07:49:13;;;;;;;28.13;25.08;;;10.20;90.20;;;;;;5075012;28;20071;-61
2021/04/29 07:51:39;;;;;;;30.02;26.30;;;10.30;90.20;;;;;;5081286;28;20495;-61
2021/04/29 07:54:06;;;;;;;28.40;25.35;;;10.30;90.10;;;;;;5074539;28;20059;-61
2021/04/29 07:56:32;;;;;;;31.80;25.23;;;10.30;89.70;;;;;;5083909;28;20263;-61
2021/04/29 07:58:58;;;;;;;29.92;25.13;;;10.30;89.70;;;;;;5076032;28;20040;-61
2021/04/29 08:01:24;;;;;;;29.27;26.10;;;10.20;89.70;;;;;;5078468;28;20052;-61
2021/04/29 08:03:49;;;;;;;26.95;24.02;;;10.20;89.80;;;;;;5071911;28;20071;-62
2021/04/29 08:06:15;;;;;;;29.60;24.50;;;10.10;90.10;;;;;;5078435;28;20129;-61
2021/04/29 08:08:41;;;;;;;27.58;23.90;;;10.10;90.30;;;;;;5074117;28;20441;-61
2021/04/29 08:11:08;;;;;;;28.27;25.23;;;10.00;90.80;;;;;;5080152;28;20045;-60
2021/04/29 08:13:34;;;;;;;29.83;25.33;;;9.90;91.00;;;;;;5080666;28;20127;-60
2021/04/29 08:16:00;;;;;;;26.92;24.10;;;9.90;91.30;;;;;;5077054;28;20043;-60
2021/04/29 08:18:26;;;;;;;26.83;23.52;;;9.80;91.60;;;;;;5080619;28;20040;-59
2021/04/29 08:20:52;;;;;;;31.52;23.88;;;9.80;91.90;;;;;;5074097;28;20143;-59
2021/04/29 08:23:18;;;;;;;28.63;23.70;;;9.80;92.20;;;;;;5081589;28;20407;-59
2021/04/29 08:25:44;;;;;;;29.85;23.40;;;9.70;92.50;;;;;;5073632;28;20256;-59
2021/04/29 08:28:10;;;;;;;28.85;23.85;;;9.60;92.50;;;;;;5078862;28;20048;-59
2021/04/29 08:30:36;;;;;;;31.48;24.50;;;9.60;92.50;;;;;;5073816;28;20040;-59
2021/04/29 08:33:02;;;;;;;31.83;24.02;;;9.50;92.90;;;;;;5081459;28;20104;-59
2021/04/29 08:35:28;;;;;;;28.73;24.10;;;9.50;93.20;;;;;;5071772;28;20100;-60
2021/04/29 08:37:54;;;;;;;35.13;26.98;;;9.40;93.50;;;;;;5080087;28;20048;-60
2021/04/29 08:40:22;;;;;;;29.83;25.65;;;9.40;93.70;;;;;;5072010;28;20039;-60
2021/04/29 08:42:48;;;;;;;31.85;24.73;;;9.30;93.60;;;;;;5080242;28;20041;-60
2021/04/29 08:45:15;;;;;;;30.08;24.38;;;9.30;94.00;;;;;;5072018;28;20393;-59
2021/04/29 08:47:42;;;;;;;28.58;25.65;;;9.30;93.90;;;;;;5079280;28;20040;-59
2021/04/29 08:50:09;;;;;;;34.60;24.90;;;9.30;94.10;;;;;;5071826;28;20067;-59
2021/04/29 08:52:37;;;;;;;36.28;26.67;;;9.20;94.50;;;;;;5079119;28;20036;-59
2021/04/29 08:55:07;;;;;;;31.48;26.63;;;9.20;94.50;;;;;;5078876;28;20044;-59
2021/04/29 08:57:34;;;;;;;35.83;28.88;;;9.20;94.10;;;;;;5072556;28;20428;-59
2021/04/29 09:00:00;;;;;;;33.72;27.63;;;9.20;94.60;;;;;;5078142;28;20040;-59
2021/04/29 09:02:36;;;;;;;34.65;26.67;;;9.10;94.50;;;;;;5071845;28;20118;-58
2021/04/29 09:05:19;;;;;;;120.63;92.88;;;9.20;94.90;;;;;;5078520;28;20086;-58
2021/04/29 09:07:51;;;;;;;35.92;28.95;;;9.20;94.90;;;;;;5077106;28;20412;-58
2021/04/29 09:10:38;;;;;;;35.47;27.73;;;9.20;94.80;;;;;;5078665;28;20472;-58
2021/04/29 09:13:15;;;;;;;35.88;29.08;;;9.10;95.00;;;;;;5071872;28;20047;-58
2021/04/29 09:15:41;;;;;;;36.08;28.65;;;9.10;95.60;;;;;;5075737;28;20422;-59
2021/04/29 09:18:14;;;;;;;38.58;28.92;;;9.10;95.50;;;;;;5071874;28;20044;-59
2021/04/29 09:20:51;;;;;;;44.95;32.40;;;9.10;96.40;;;;;;5076778;28;20271;-59
2021/04/29 09:23:18;;;;;;;40.10;32.55;;;9.00;97.10;;;;;;5073069;28;20096;-60
2021/04/29 09:25:59;;;;;;;46.92;35.80;;;9.00;97.10;;;;;;5077259;28;20488;-59
2021/04/29 09:28:45;;;;;;;50.15;34.28;;;9.00;97.40;;;;;;5072411;28;20044;-59
2021/04/29 09:31:13;;;;;;;45.58;35.08;;;8.90;97.60;;;;;;5078607;28;20036;-60
2021/04/29 09:33:47;;;;;;;53.60;37.53;;;8.90;97.60;;;;;;5072311;28;20067;-59
2021/04/29 09:36:27;;;;;;;40.35;34.17;;;8.90;98.10;;;;;;5079031;28;20029;-60
2021/04/29 09:38:57;;;;;;;56.15;38.53;;;8.90;98.20;;;;;;5072876;28;20044;-60
2021/04/29 09:41:29;;;;;;;42.53;34.83;;;8.90;98.50;;;;;;5078235;28;20450;-61
2021/04/29 09:43:57;;;;;;;61.95;52.15;;;8.90;98.40;;;;;;5077854;28;20074;-60
2021/04/29 09:46:24;;;;;;;82.78;68.68;;;9.00;98.90;;;;;;5076709;28;20028;-59
2021/04/29 09:48:50;;;;;;;42.97;35.88;;;9.00;98.90;;;;;;5074358;28;20044;-59
2021/04/29 09:51:18;;;;;;;49.30;37.53;;;9.00;98.80;;;;;;5078159;28;20043;-59
2021/04/29 09:53:48;;;;;;;45.22;32.38;;;9.00;98.80;;;;;;5072811;28;20055;-59
2021/04/29 09:56:14;;;;;;;49.20;37.78;;;9.00;98.80;;;;;;5073742;28;20044;-60
2021/04/29 09:58:47;;;;;;;42.30;35.78;;;9.00;98.90;;;;;;5074379;28;20078;-58
2021/04/29 10:01:13;;;;;;;47.58;37.78;;;9.10;99.10;;;;;;5077620;28;20044;-60
2021/04/29 10:03:41;;;;;;;54.03;39.58;;;9.10;98.90;;;;;;5074530;28;20103;-60
2021/04/29 10:06:13;;;;;;;51.65;38.33;;;9.10;99.00;;;;;;5074803;28;20029;-60
2021/04/29 10:08:39;;;;;;;50.13;37.72;;;9.20;99.10;;;;;;5075835;28;20040;-59
2021/04/29 10:11:06;;;;;;;45.42;37.38;;;9.20;99.00;;;;;;5076415;28;20495;-60
2021/04/29 10:13:38;;;;;;;50.35;38.53;;;9.20;98.70;;;;;;5071762;28;20560;-60
2021/04/29 10:16:04;;;;;;;48.88;38.83;;;9.30;99.10;;;;;;5078257;28;20126;-60
2021/04/29 10:18:30;;;;;;;49.45;39.10;;;9.20;99.10;;;;;;5073358;28;20123;-60
2021/04/29 10:20:59;;;;;;;47.17;37.22;;;9.20;99.10;;;;;;5077185;28;20082;-59
2021/04/29 10:23:26;;;;;;;51.00;38.58;;;9.30;99.20;;;;;;5075797;28;20123;-60
2021/04/29 10:25:58;;;;;;;45.03;37.28;;;9.30;99.00;;;;;;5073794;28;20044;-60
2021/04/29 10:28:30;;;;;;;47.22;38.42;;;9.30;99.20;;;;;;5081053;28;20320;-59
2021/04/29 10:30:56;;;;;;;49.85;39.58;;;9.30;99.20;;;;;;5071387;28;20163;-59
2021/04/29 10:33:22;;;;;;;322.25;286.52;;;9.30;99.10;;;;;;5078431;28;20039;-60
2021/04/29 10:36:00;;;;;;;62.08;48.35;;;9.20;99.10;;;;;;5075582;28;20090;-60
2021/04/29 10:38:33;;;;;;;52.20;41.20;;;9.30;99.30;;;;;;5080388;28;20037;-61
2021/04/29 10:41:03;;;;;;;43.03;36.15;;;9.20;99.30;;;;;;5075209;28;20071;-61
2021/04/29 10:43:34;;;;;;;47.03;37.22;;;9.20;99.60;;;;;;5084014;28;20090;-63
2021/04/29 10:46:03;;;;;;;54.08;37.38;;;9.30;99.30;;;;;;5078618;28;20074;-63
2021/04/29 10:48:30;;;;;;;45.50;36.95;;;9.20;99.30;;;;;;5082506;28;20048;-63
2021/04/29 10:51:05;;;;;;;54.58;38.67;;;9.20;99.40;;;;;;5075986;28;20036;-62
2021/04/29 10:53:33;;;;;;;48.25;37.13;;;9.20;99.50;;;;;;5079637;28;20083;-65
2021/04/29 10:56:01;;;;;;;53.63;38.60;;;9.20;99.70;;;;;;5074790;28;20495;-63
2021/04/29 10:58:26;;;;;;;53.30;40.58;;;9.10;99.70;;;;;;5081217;28;20078;-64
2021/04/29 11:01:02;;;;;;;75.68;47.22;;;9.10;99.90;;;;;;5077715;28;20142;-62
2021/04/29 11:03:33;;;;;;;70.55;45.88;;;9.00;99.90;;;;;;5078997;28;20036;-68
2021/04/29 11:06:05;;;;;;;55.72;41.05;;;9.00;99.90;;;;;;5078324;28;20044;-64
2021/04/29 11:08:42;;;;;;;56.28;39.63;;;9.00;99.90;;;;;;5081243;28;20036;-63
2021/04/29 11:11:33;;;;;;;58.03;41.78;;;9.00;99.90;;;;;;5075133;28;20406;-62
2021/04/29 11:14:06;;;;;;;51.45;39.00;;;9.00;99.90;;;;;;5080234;28;20181;-63
2021/04/29 11:16:47;;;;;;;55.03;40.03;;;8.90;99.90;;;;;;5078815;28;20194;-63
2021/04/29 11:19:34;;;;;;;62.25;42.95;;;8.90;99.90;;;;;;5083079;28;20062;-63
2021/04/29 11:22:04;;;;;;;71.30;40.92;;;8.90;99.90;;;;;;5076885;28;20045;-64
2021/04/29 11:24:47;;;;;;;50.75;38.58;;;9.00;99.90;;;;;;5079800;28;20044;-63
2021/04/29 11:27:32;;;;;;;61.03;41.13;;;9.00;99.90;;;;;;5076735;28;20028;-64
2021/04/29 11:30:03;;;;;;;52.35;39.05;;;9.00;99.90;;;;;;5078231;28;20041;-61
2021/04/29 11:32:34;;;;;;;56.67;40.47;;;9.00;99.90;;;;;;5074567;28;20110;-63
2021/04/29 11:35:02;;;;;;;67.07;41.78;;;9.00;99.90;;;;;;5077949;28;20131;-64
2021/04/29 11:37:39;;;;;;;50.20;37.88;;;9.00;99.90;;;;;;5077971;28;20512;-63
2021/04/29 11:40:06;;;;;;;56.53;38.72;;;9.00;99.90;;;;;;5075506;28;20495;-65
2021/04/29 11:42:33;;;;;;;59.20;39.22;;;9.00;99.90;;;;;;5071447;28;20047;-61
2021/04/29 11:45:27;;;;;;;52.85;37.70;;;8.90;99.90;;;;;;5079623;28;20078;-61
2021/04/29 11:48:09;;;;;;;50.70;37.35;;;8.90;99.90;;;;;;5076732;28;20436;-63
2021/04/29 11:50:47;;;;;;;48.05;35.30;;;9.00;99.90;;;;;;5081253;28;20543;-61
2021/04/29 11:53:15;;;;;;;35.88;31.88;;;9.00;99.90;;;;;;5071896;28;20039;-61
2021/04/29 11:55:43;;;;;;;37.85;30.77;;;9.00;99.90;;;;;;5076419;28;20186;-62
2021/04/29 11:58:12;;;;;;;42.05;30.80;;;9.00;99.90;;;;;;5074616;28;20123;-61
2021/04/29 12:00:40;;;;;;;87.28;40.15;;;9.00;99.90;;;;;;5081236;28;20124;-61
2021/04/29 12:03:07;;;;;;;41.70;32.75;;;8.90;99.90;;;;;;5072123;28;20407;-61
2021/04/29 12:05:43;;;;;;;45.17;31.08;;;9.00;99.90;;;;;;5075637;28;20540;-60
2021/04/29 12:08:18;;;;;;;29.45;24.50;;;9.00;99.90;;;;;;5076978;28;20164;-60
2021/04/29 12:10:46;;;;;;;36.88;28.73;;;9.00;99.90;;;;;;5076186;28;20047;-60
2021/04/29 12:13:13;;;;;;;33.25;29.65;;;9.00;99.90;;;;;;5070884;28;20041;-61
2021/04/29 12:15:39;;;;;;;32.38;27.67;;;9.10;99.90;;;;;;5077790;28;20056;-59
2021/04/29 12:18:13;;;;;;;30.73;27.30;;;9.10;99.90;;;;;;5079133;28;20486;-59
2021/04/29 12:20:41;;;;;;;39.92;31.20;;;9.10;99.90;;;;;;5077905;28;20101;-61
2021/04/29 12:23:12;;;;;;;33.38;28.30;;;9.10;99.90;;;;;;5080191;28;20093;-60
2021/04/29 12:25:39;;;;;;;39.45;30.50;;;9.10;99.90;;;;;;5074225;28;20086;-60
2021/04/29 12:28:18;;;;;;;55.75;35.88;;;9.20;99.90;;;;;;5077634;28;20084;-60
2021/04/29 12:30:45;;;;;;;45.90;39.20;;;9.20;99.90;;;;;;5072521;28;20036;-60
2021/04/29 12:33:19;;;;;;;38.70;29.83;;;9.30;99.90;;;;;;5078565;28;20132;-60
2021/04/29 12:35:46;;;;;;;26.88;24.08;;;9.20;99.90;;;;;;5075653;28;20029;-62
2021/04/29 12:38:13;;;;;;;35.95;30.35;;;9.20;99.90;;;;;;5082935;28;20036;-63
2021/04/29 12:40:39;;;;;;;37.05;29.67;;;9.20;99.90;;;;;;5077094;28;20062;-62